Weather Melbourne :: Current Conditions and Historical Data

 
Daily Summary for December 20, 2014 Units:  Both    English   Metric
« Previous Day
Next Day »
Daily Weekly Monthly Yearly Custom
  Current: High: Low: Average:
Temperature: 74.1 °F /  23.4 °C 74.1 °F /  23.4 °C 49.3 °F /  9.6 °C 57.6 °F /  14.2 °C
Dew Point: 52.6 °F /  11.4 °C 53.4 °F /  11.9 °C 45.0 °F /  7.2 °C 48 °F /  8.9 °C
Humidity: 47 % 88 % 47 % 72 %
Wind Speed: 4.0 mph /  6.4 km/h 9.2 mph /  14.8 km/h - 1.9 mph /  3.1 km/h
Wind Gust: 4.0 mph /  6.4 km/h 9.2 mph /  14.8 km/h - -
Wind:ESE - - SSE
Pressure: 30.05 in /  1017.5 hPa 30.09 in /  1018.8 hPa 30.04 in /  1017.2 hPa -
Precipitation: 0.00 in /  0 mm      
Melbourne, Australia Weather Graphs
 
 
Melbourne, current snapshot. Courtesy of citylink.com.au
Weather Melbourne

Melbourne Weather Radar




Weather in Melbourne, AU
Hourly Data for December 20, 2014
Time Temperature Dew Point Pressure Wind Wind Speed Wind Gust Humidity Rainfall Rate (Hourly) solar Conditions
00:01 55.7 °F /  13.2 °C 45.7 °F /  7.6 °C 30.08 in /  1018.5 hPa Calm     69 % 0.00 in /  0 mm 0.0 W/m2 BKN
00:06 55.7 °F /  13.2 °C 45.7 °F /  7.6 °C 30.08 in /  1018.5 hPa Calm     69 % 0.00 in /  0 mm 0.0 W/m2 BKN
00:11 55.7 °F /  13.2 °C 45.7 °F /  7.6 °C 30.08 in /  1018.5 hPa Calm     69 % 0.00 in /  0 mm 0.0 W/m2 BKN
00:16 55.6 °F /  13.1 °C 45.6 °F /  7.6 °C 30.08 in /  1018.5 hPa Calm     69 % 0.00 in /  0 mm 0.0 W/m2 BKN
00:21 55.6 °F /  13.1 °C 45.6 °F /  7.6 °C 30.08 in /  1018.5 hPa Calm     69 % 0.00 in /  0 mm 0.0 W/m2 BKN
00:26 55.6 °F /  13.1 °C 45.6 °F /  7.6 °C 30.08 in /  1018.5 hPa Calm     69 % 0.00 in /  0 mm 0.0 W/m2 BKN
00:31 55.5 °F /  13.1 °C 45.5 °F /  7.5 °C 30.08 in /  1018.5 hPa Calm     69 % 0.00 in /  0 mm 0.0 W/m2 BKN
00:36 55.5 °F /  13.1 °C 45.5 °F /  7.5 °C 30.08 in /  1018.5 hPa Calm     69 % 0.00 in /  0 mm 0.0 W/m2 BKN
00:41 55.5 °F /  13.1 °C 45.5 °F /  7.5 °C 30.08 in /  1018.5 hPa Calm     69 % 0.00 in /  0 mm 0.0 W/m2 BKN
00:46 55.4 °F /  13 °C 45.8 °F /  7.7 °C 30.07 in /  1018.2 hPa Calm     70 % 0.00 in /  0 mm 0.0 W/m2 BKN
00:51 55.4 °F /  13 °C 45.8 °F /  7.7 °C 30.07 in /  1018.2 hPa Calm     70 % 0.00 in /  0 mm 0.0 W/m2 BKN
00:56 55.4 °F /  13 °C 45.8 °F /  7.7 °C 30.07 in /  1018.2 hPa Calm     70 % 0.00 in /  0 mm 0.0 W/m2 BKN
01:01 55.3 °F /  12.9 °C 46.1 °F /  7.8 °C 30.07 in /  1018.2 hPa Calm     71 % 0.00 in /  0 mm 0.0 W/m2 BKN
01:06 55.3 °F /  12.9 °C 46.1 °F /  7.8 °C 30.07 in /  1018.2 hPa Calm     71 % 0.00 in /  0 mm 0.0 W/m2 BKN
01:11 55.3 °F /  12.9 °C 46.1 °F /  7.8 °C 30.07 in /  1018.2 hPa Calm     71 % 0.00 in /  0 mm 0.0 W/m2 BKN
01:16 55.2 °F /  12.9 °C 46.0 °F /  7.8 °C 30.07 in /  1018.2 hPa Calm     71 % 0.00 in /  0 mm 0.0 W/m2 SCT
01:21 55.2 °F /  12.9 °C 46.0 °F /  7.8 °C 30.07 in /  1018.2 hPa Calm     71 % 0.00 in /  0 mm 0.0 W/m2 SCT
01:26 55.1 °F /  12.8 °C 46.2 °F /  7.9 °C 30.07 in /  1018.2 hPa Calm     72 % 0.00 in /  0 mm 0.0 W/m2 SCT
01:31 55.1 °F /  12.8 °C 46.2 °F /  7.9 °C 30.07 in /  1018.2 hPa Calm     72 % 0.00 in /  0 mm 0.0 W/m2 SCT
01:36 55.0 °F /  12.8 °C 46.1 °F /  7.8 °C 30.06 in /  1017.8 hPa Calm     72 % 0.00 in /  0 mm 0.0 W/m2 SCT
01:41 54.9 °F /  12.7 °C 46.0 °F /  7.8 °C 30.06 in /  1017.8 hPa Calm     72 % 0.00 in /  0 mm 0.0 W/m2 SCT
01:46 54.8 °F /  12.7 °C 45.9 °F /  7.7 °C 30.06 in /  1017.8 hPa Calm     72 % 0.00 in /  0 mm 0.0 W/m2 FEW
01:51 54.8 °F /  12.7 °C 45.9 °F /  7.7 °C 30.06 in /  1017.8 hPa Calm     72 % 0.00 in /  0 mm 0.0 W/m2 FEW
01:56 54.7 °F /  12.6 °C 45.8 °F /  7.7 °C 30.06 in /  1017.8 hPa Calm     72 % 0.00 in /  0 mm 0.0 W/m2 FEW
02:01 54.7 °F /  12.6 °C 45.8 °F /  7.7 °C 30.06 in /  1017.8 hPa Calm     72 % 0.00 in /  0 mm 0.0 W/m2 FEW
02:06 54.6 °F /  12.6 °C 45.8 °F /  7.7 °C 30.05 in /  1017.5 hPa Calm     72 % 0.00 in /  0 mm 0.0 W/m2 FEW
02:11 54.5 °F /  12.5 °C 45.7 °F /  7.6 °C 30.05 in /  1017.5 hPa Calm     72 % 0.00 in /  0 mm 0.0 W/m2 FEW
02:16 54.4 °F /  12.4 °C 45.6 °F /  7.6 °C 30.05 in /  1017.5 hPa Calm     72 % 0.00 in /  0 mm 0.0 W/m2 FEW
02:21 54.3 °F /  12.4 °C 45.8 °F /  7.7 °C 30.05 in /  1017.5 hPa Calm     73 % 0.00 in /  0 mm 0.0 W/m2 FEW
02:26 54.2 °F /  12.3 °C 45.7 °F /  7.6 °C 30.05 in /  1017.5 hPa Calm     73 % 0.00 in /  0 mm 0.0 W/m2 FEW
02:31 54.1 °F /  12.3 °C 45.6 °F /  7.6 °C 30.05 in /  1017.5 hPa Calm     73 % 0.00 in /  0 mm 0.0 W/m2 FEW
02:36 54.0 °F /  12.2 °C 45.2 °F /  7.3 °C 30.05 in /  1017.5 hPa Calm     72 % 0.00 in /  0 mm 0.0 W/m2 FEW
02:41 53.9 °F /  12.2 °C 45.1 °F /  7.3 °C 30.05 in /  1017.5 hPa Calm     72 % 0.00 in /  0 mm 0.0 W/m2 FEW
02:46 53.9 °F /  12.2 °C 45.4 °F /  7.4 °C 30.05 in /  1017.5 hPa Calm     73 % 0.00 in /  0 mm 0.0 W/m2 FEW
02:51 53.9 °F /  12.2 °C 45.4 °F /  7.4 °C 30.05 in /  1017.5 hPa Calm     73 % 0.00 in /  0 mm 0.0 W/m2 FEW
02:56 53.7 °F /  12.1 °C 45.2 °F /  7.3 °C 30.05 in /  1017.5 hPa Calm     73 % 0.00 in /  0 mm 0.0 W/m2 FEW
03:01 53.7 °F /  12.1 °C 45.6 °F /  7.6 °C 30.05 in /  1017.5 hPa Calm     74 % 0.00 in /  0 mm 0.0 W/m2 FEW
03:06 53.6 °F /  12 °C 45.9 °F /  7.7 °C 30.05 in /  1017.5 hPa Calm     75 % 0.00 in /  0 mm 0.0 W/m2 FEW
03:11 53.5 °F /  11.9 °C 46.1 °F /  7.8 °C 30.05 in /  1017.5 hPa Calm     76 % 0.00 in /  0 mm 0.0 W/m2 FEW
03:16 53.3 °F /  11.8 °C 45.9 °F /  7.7 °C 30.04 in /  1017.2 hPa Calm     76 % 0.00 in /  0 mm 0.0 W/m2 FEW
03:21 53.1 °F /  11.7 °C 46.1 °F /  7.8 °C 30.04 in /  1017.2 hPa Calm     77 % 0.00 in /  0 mm 0.0 W/m2 FEW
03:26 52.8 °F /  11.6 °C 46.1 °F /  7.8 °C 30.04 in /  1017.2 hPa Calm     78 % 0.00 in /  0 mm 0.0 W/m2 FEW
03:31 52.6 °F /  11.4 °C 45.9 °F /  7.7 °C 30.04 in /  1017.2 hPa Calm     78 % 0.00 in /  0 mm 0.0 W/m2 FEW
03:36 52.5 °F /  11.4 °C 46.2 °F /  7.9 °C 30.04 in /  1017.2 hPa Calm     79 % 0.00 in /  0 mm 0.0 W/m2 FEW
03:41 52.4 °F /  11.3 °C 46.1 °F /  7.8 °C 30.04 in /  1017.2 hPa NNE 2.3 mph /  3.7 km/h 2.3 mph /  3.7 km/h 79 % 0.00 in /  0 mm 0.0 W/m2 FEW
03:46 52.3 °F /  11.3 °C 46.0 °F /  7.8 °C 30.04 in /  1017.2 hPa NNE 2.0 mph /  3.2 km/h 2.0 mph /  3.2 km/h 79 % 0.00 in /  0 mm 0.0 W/m2 FEW
03:51 52.2 °F /  11.2 °C 45.9 °F /  7.7 °C 30.04 in /  1017.2 hPa NNE 1.2 mph /  1.9 km/h 1.2 mph /  1.9 km/h 79 % 0.00 in /  0 mm 0.0 W/m2 FEW
03:56 52.2 °F /  11.2 °C 45.9 °F /  7.7 °C 30.04 in /  1017.2 hPa NNE 1.2 mph /  1.9 km/h   79 % 0.00 in /  0 mm 0.0 W/m2 FEW
04:01 52.1 °F /  11.2 °C 45.8 °F /  7.7 °C 30.04 in /  1017.2 hPa Calm     79 % 0.00 in /  0 mm 0.0 W/m2 FEW
04:06 52.1 °F /  11.2 °C 46.1 °F /  7.8 °C 30.04 in /  1017.2 hPa NNE 1.2 mph /  1.9 km/h 1.2 mph /  1.9 km/h 80 % 0.00 in /  0 mm 0.0 W/m2 FEW
04:11 52.0 °F /  11.1 °C 46.0 °F /  7.8 °C 30.04 in /  1017.2 hPa NNE 1.2 mph /  1.9 km/h   80 % 0.00 in /  0 mm 0.0 W/m2 FEW
04:16 52.0 °F /  11.1 °C 46.0 °F /  7.8 °C 30.04 in /  1017.2 hPa NNE 1.2 mph /  1.9 km/h 1.2 mph /  1.9 km/h 80 % 0.00 in /  0 mm 0.0 W/m2 FEW
04:21 51.9 °F /  11.1 °C 45.9 °F /  7.7 °C 30.04 in /  1017.2 hPa Calm     80 % 0.00 in /  0 mm 0.0 W/m2 FEW
04:26 51.8 °F /  11 °C 45.8 °F /  7.7 °C 30.04 in /  1017.2 hPa Calm     80 % 0.00 in /  0 mm 0.0 W/m2 FEW
04:31 51.7 °F /  10.9 °C 46.1 °F /  7.8 °C 30.04 in /  1017.2 hPa NNE 1.2 mph /  1.9 km/h 1.2 mph /  1.9 km/h 81 % 0.00 in /  0 mm 0.0 W/m2 FEW
04:36 51.6 °F /  10.9 °C 45.6 °F /  7.6 °C 30.04 in /  1017.2 hPa Calm     80 % 0.00 in /  0 mm 0.0 W/m2 FEW
04:41 51.5 °F /  10.8 °C 45.5 °F /  7.5 °C 30.04 in /  1017.2 hPa Calm     80 % 0.00 in /  0 mm 0.0 W/m2 FEW
04:46 51.4 °F /  10.8 °C 45.8 °F /  7.7 °C 30.04 in /  1017.2 hPa NNE 1.2 mph /  1.9 km/h 1.2 mph /  1.9 km/h 81 % 0.00 in /  0 mm 0.0 W/m2 FEW
04:51 51.3 °F /  10.7 °C 45.7 °F /  7.6 °C 30.04 in /  1017.2 hPa Calm     81 % 0.00 in /  0 mm 0.0 W/m2 FEW
04:56 51.1 °F /  10.6 °C 45.5 °F /  7.5 °C 30.04 in /  1017.2 hPa NNE 1.2 mph /  1.9 km/h   81 % 0.00 in /  0 mm 0.0 W/m2 FEW
05:01 50.9 °F /  10.5 °C 45.6 °F /  7.6 °C 30.04 in /  1017.2 hPa NNE 1.2 mph /  1.9 km/h 1.2 mph /  1.9 km/h 82 % 0.00 in /  0 mm 0.0 W/m2 FEW
05:06 50.8 °F /  10.4 °C 45.5 °F /  7.5 °C 30.04 in /  1017.2 hPa NNE 2.3 mph /  3.7 km/h 2.3 mph /  3.7 km/h 82 % 0.00 in /  0 mm 0.0 W/m2 FEW
05:11 50.7 °F /  10.4 °C 45.4 °F /  7.4 °C 30.04 in /  1017.2 hPa NNE 1.2 mph /  1.9 km/h 1.2 mph /  1.9 km/h 82 % 0.00 in /  0 mm 0.0 W/m2 FEW
05:16 50.5 °F /  10.3 °C 45.5 °F /  7.5 °C 30.04 in /  1017.2 hPa NNE 2.3 mph /  3.7 km/h 2.3 mph /  3.7 km/h 83 % 0.00 in /  0 mm 0.0 W/m2 FEW
05:21 50.4 °F /  10.2 °C 45.4 °F /  7.4 °C 30.04 in /  1017.2 hPa Calm     83 % 0.00 in /  0 mm 0.0 W/m2 FEW
05:26 50.2 °F /  10.1 °C 45.2 °F /  7.3 °C 30.04 in /  1017.2 hPa Calm     83 % 0.00 in /  0 mm 0.0 W/m2 FEW
05:31 50.1 °F /  10.1 °C 45.5 °F /  7.5 °C 30.04 in /  1017.2 hPa Calm     84 % 0.00 in /  0 mm 0.0 W/m2 FEW
05:36 50.0 °F /  10 °C 45.4 °F /  7.4 °C 30.04 in /  1017.2 hPa Calm     84 % 0.00 in /  0 mm 0.0 W/m2 FEW
05:41 50.0 °F /  10 °C 45.4 °F /  7.4 °C 30.04 in /  1017.2 hPa Calm     84 % 0.00 in /  0 mm 0.0 W/m2 FEW
05:46 49.9 °F /  9.9 °C 45.3 °F /  7.4 °C 30.04 in /  1017.2 hPa Calm     84 % 0.00 in /  0 mm 0.0 W/m2 FEW
05:51 49.8 °F /  9.9 °C 45.2 °F /  7.3 °C 30.05 in /  1017.5 hPa Calm     84 % 0.00 in /  0 mm 0.0 W/m2 FEW
05:56 49.8 °F /  9.9 °C 45.5 °F /  7.5 °C 30.05 in /  1017.5 hPa Calm     85 % 0.00 in /  0 mm 0.0 W/m2 FEW
06:01 49.7 °F /  9.8 °C 45.4 °F /  7.4 °C 30.05 in /  1017.5 hPa NE 1.0 mph /  1.6 km/h 1.0 mph /  1.6 km/h 85 % 0.00 in /  0 mm 5.0 W/m2 FEW
06:06 49.6 °F /  9.8 °C 45.3 °F /  7.4 °C 30.05 in /  1017.5 hPa NE 2.3 mph /  3.7 km/h 2.3 mph /  3.7 km/h 85 % 0.00 in /  0 mm 7.0 W/m2 FEW
06:11 49.5 °F /  9.7 °C 45.2 °F /  7.3 °C 30.05 in /  1017.5 hPa NE 2.3 mph /  3.7 km/h 2.3 mph /  3.7 km/h 85 % 0.00 in /  0 mm 11.0 W/m2 FEW
06:16 49.5 °F /  9.7 °C 45.2 °F /  7.3 °C 30.05 in /  1017.5 hPa NE 2.3 mph /  3.7 km/h 2.3 mph /  3.7 km/h 85 % 0.00 in /  0 mm 12.0 W/m2 FEW
06:21 49.4 °F /  9.7 °C 45.1 °F /  7.3 °C 30.05 in /  1017.5 hPa NE 2.3 mph /  3.7 km/h   85 % 0.00 in /  0 mm 16.0 W/m2 FEW
06:26 49.3 °F /  9.6 °C 45.0 °F /  7.2 °C 30.05 in /  1017.5 hPa NE 1.2 mph /  1.9 km/h 1.2 mph /  1.9 km/h 85 % 0.00 in /  0 mm 18.0 W/m2 FEW
06:31 49.3 °F /  9.6 °C 45.3 °F /  7.4 °C 30.05 in /  1017.5 hPa NE 2.3 mph /  3.7 km/h 2.3 mph /  3.7 km/h 86 % 0.00 in /  0 mm 21.0 W/m2 FEW
06:36 49.3 °F /  9.6 °C 45.3 °F /  7.4 °C 30.05 in /  1017.5 hPa NE 1.2 mph /  1.9 km/h 1.2 mph /  1.9 km/h 86 % 0.00 in /  0 mm 23.0 W/m2 FEW
06:41 49.3 °F /  9.6 °C 45.3 °F /  7.4 °C 30.05 in /  1017.5 hPa Calm     86 % 0.00 in /  0 mm 25.0 W/m2 FEW
06:46 49.4 °F /  9.7 °C 45.4 °F /  7.4 °C 30.05 in /  1017.5 hPa Calm     86 % 0.00 in /  0 mm 26.0 W/m2 FEW
06:51 49.4 °F /  9.7 °C 45.4 °F /  7.4 °C 30.05 in /  1017.5 hPa Calm     86 % 0.00 in /  0 mm 30.0 W/m2 FEW
06:56 49.5 °F /  9.7 °C 45.5 °F /  7.5 °C 30.06 in /  1017.8 hPa Calm     86 % 0.00 in /  0 mm 32.0 W/m2 FEW
07:01 49.6 °F /  9.8 °C 45.9 °F /  7.7 °C 30.05 in /  1017.5 hPa Calm     87 % 0.00 in /  0 mm 33.0 W/m2 FEW
07:06 49.7 °F /  9.8 °C 46.0 °F /  7.8 °C 30.06 in /  1017.8 hPa Calm     87 % 0.00 in /  0 mm 69.0 W/m2 FEW
07:11 49.7 °F /  9.8 °C 46.0 °F /  7.8 °C 30.06 in /  1017.8 hPa Calm     87 % 0.00 in /  0 mm 153.0 W/m2 FEW
07:16 49.9 °F /  9.9 °C 46.2 °F /  7.9 °C 30.06 in /  1017.8 hPa Calm     87 % 0.00 in /  0 mm 167.0 W/m2 FEW
07:21 50.1 °F /  10.1 °C 46.4 °F /  8 °C 30.06 in /  1017.8 hPa Calm     87 % 0.00 in /  0 mm 199.0 W/m2 FEW
07:26 50.3 °F /  10.2 °C 46.6 °F /  8.1 °C 30.06 in /  1017.8 hPa Calm     87 % 0.00 in /  0 mm 223.0 W/m2 FEW
07:31 50.5 °F /  10.3 °C 46.8 °F /  8.2 °C 30.06 in /  1017.8 hPa Calm     87 % 0.00 in /  0 mm 239.0 W/m2 FEW
07:36 50.8 °F /  10.4 °C 47.4 °F /  8.6 °C 30.06 in /  1017.8 hPa Calm     88 % 0.00 in /  0 mm 255.0 W/m2 FEW
07:41 51.2 °F /  10.7 °C 47.8 °F /  8.8 °C 30.06 in /  1017.8 hPa Calm     88 % 0.00 in /  0 mm 272.0 W/m2 FEW
07:46 51.5 °F /  10.8 °C 48.1 °F /  8.9 °C 30.06 in /  1017.8 hPa Calm     88 % 0.00 in /  0 mm 287.0 W/m2 FEW
07:51 51.9 °F /  11.1 °C 48.5 °F /  9.2 °C 30.06 in /  1017.8 hPa Calm     88 % 0.00 in /  0 mm 304.0 W/m2 FEW
07:56 52.4 °F /  11.3 °C 48.9 °F /  9.4 °C 30.07 in /  1018.2 hPa Calm     88 % 0.00 in /  0 mm 323.0 W/m2 FEW
08:01 53.0 °F /  11.7 °C 49.5 °F /  9.7 °C 30.07 in /  1018.2 hPa SE 1.2 mph /  1.9 km/h 1.2 mph /  1.9 km/h 88 % 0.00 in /  0 mm 339.0 W/m2 FEW
08:06 53.5 °F /  11.9 °C 49.7 °F /  9.8 °C 30.07 in /  1018.2 hPa SE 1.2 mph /  1.9 km/h 1.2 mph /  1.9 km/h 87 % 0.00 in /  0 mm 360.0 W/m2 FEW
08:11 54.0 °F /  12.2 °C 50.2 °F /  10.1 °C 30.07 in /  1018.2 hPa Calm     87 % 0.00 in /  0 mm 378.0 W/m2 FEW
08:16 54.9 °F /  12.7 °C 50.8 °F /  10.4 °C 30.07 in /  1018.2 hPa West 2.3 mph /  3.7 km/h 2.3 mph /  3.7 km/h 86 % 0.00 in /  0 mm 396.0 W/m2 FEW
08:21 55.9 °F /  13.3 °C 50.8 °F /  10.4 °C 30.07 in /  1018.2 hPa WSW 2.3 mph /  3.7 km/h 2.3 mph /  3.7 km/h 83 % 0.00 in /  0 mm 411.0 W/m2 FEW
08:26 56.9 °F /  13.8 °C 50.8 °F /  10.4 °C 30.08 in /  1018.5 hPa WSW 3.5 mph /  5.6 km/h 3.5 mph /  5.6 km/h 80 % 0.00 in /  0 mm 418.0 W/m2 FEW
08:31 57.3 °F /  14.1 °C 50.5 °F /  10.3 °C 30.08 in /  1018.5 hPa SSE 1.2 mph /  1.9 km/h 1.2 mph /  1.9 km/h 78 % 0.00 in /  0 mm 448.0 W/m2 FEW
08:36 58.0 °F /  14.4 °C 50.5 °F /  10.3 °C 30.08 in /  1018.5 hPa ESE 2.3 mph /  3.7 km/h 2.3 mph /  3.7 km/h 76 % 0.00 in /  0 mm 218.0 W/m2 FEW
08:41 58.6 °F /  14.8 °C 50.7 °F /  10.4 °C 30.08 in /  1018.5 hPa South 3.5 mph /  5.6 km/h 3.5 mph /  5.6 km/h 75 % 0.00 in /  0 mm 522.0 W/m2 FEW
08:46 59.0 °F /  15 °C 50.4 °F /  10.2 °C 30.08 in /  1018.5 hPa West 2.3 mph /  3.7 km/h 2.3 mph /  3.7 km/h 73 % 0.00 in /  0 mm 566.0 W/m2 FEW
08:51 59.5 °F /  15.3 °C 50.5 °F /  10.3 °C 30.08 in /  1018.5 hPa South 4.0 mph /  6.4 km/h 4.0 mph /  6.4 km/h 72 % 0.00 in /  0 mm 512.0 W/m2 FEW
08:56 60.1 °F /  15.6 °C 51.0 °F /  10.6 °C 30.08 in /  1018.5 hPa SSW 6.9 mph /  11.1 km/h 6.9 mph /  11.1 km/h 72 % 0.00 in /  0 mm 529.0 W/m2 FEW
09:01 60.9 °F /  16.1 °C 51.0 °F /  10.6 °C 30.08 in /  1018.5 hPa SW 2.3 mph /  3.7 km/h 2.3 mph /  3.7 km/h 70 % 0.00 in /  0 mm 559.0 W/m2 FEW
09:06 61.1 °F /  16.2 °C 50.8 °F /  10.4 °C 30.08 in /  1018.5 hPa ESE 3.5 mph /  5.6 km/h 3.5 mph /  5.6 km/h 69 % 0.00 in /  0 mm 605.0 W/m2 FEW
09:11 62.3 °F /  16.8 °C 51.6 °F /  10.9 °C 30.09 in /  1018.8 hPa SW 3.5 mph /  5.6 km/h 3.5 mph /  5.6 km/h 68 % 0.00 in /  0 mm 687.0 W/m2 FEW
09:16 62.3 °F /  16.8 °C 50.8 °F /  10.4 °C 30.08 in /  1018.5 hPa SW 2.3 mph /  3.7 km/h 2.3 mph /  3.7 km/h 66 % 0.00 in /  0 mm 698.0 W/m2 FEW
09:21 62.3 °F /  16.8 °C 51.2 °F /  10.7 °C 30.09 in /  1018.8 hPa SSW 5.0 mph /  8 km/h 5.0 mph /  8 km/h 67 % 0.00 in /  0 mm 251.0 W/m2 FEW
09:27 62.5 °F /  16.9 °C 51.0 °F /  10.6 °C 30.08 in /  1018.5 hPa SW 3.5 mph /  5.6 km/h 3.5 mph /  5.6 km/h 66 % 0.00 in /  0 mm 190.0 W/m2 FEW
09:32 62.2 °F /  16.8 °C 50.7 °F /  10.4 °C 30.09 in /  1018.8 hPa SSW 5.8 mph /  9.3 km/h 5.8 mph /  9.3 km/h 66 % 0.00 in /  0 mm 761.0 W/m2 FEW
09:37 62.8 °F /  17.1 °C 51.3 °F /  10.7 °C 30.09 in /  1018.8 hPa WSW 2.3 mph /  3.7 km/h 2.3 mph /  3.7 km/h 66 % 0.00 in /  0 mm 740.0 W/m2 FEW
09:42 63.3 °F /  17.4 °C 51.7 °F /  10.9 °C 30.09 in /  1018.8 hPa South 4.6 mph /  7.4 km/h 4.6 mph /  7.4 km/h 66 % 0.00 in /  0 mm 828.0 W/m2 FEW
09:47 63.7 °F /  17.6 °C 52.1 °F /  11.2 °C 30.09 in /  1018.8 hPa South 4.6 mph /  7.4 km/h 4.6 mph /  7.4 km/h 66 % 0.00 in /  0 mm 893.0 W/m2 SCT
09:52 64.7 °F /  18.2 °C 52.2 °F /  11.2 °C 30.09 in /  1018.8 hPa SW 5.8 mph /  9.3 km/h 5.8 mph /  9.3 km/h 64 % 0.00 in /  0 mm 861.0 W/m2 SCT
09:57 64.8 °F /  18.2 °C 52.3 °F /  11.3 °C 30.09 in /  1018.8 hPa South 4.0 mph /  6.4 km/h 4.0 mph /  6.4 km/h 64 % 0.00 in /  0 mm 858.0 W/m2 SCT
10:02 65.1 °F /  18.4 °C 51.8 °F /  11 °C 30.09 in /  1018.8 hPa WSW 4.0 mph /  6.4 km/h 4.0 mph /  6.4 km/h 62 % 0.00 in /  0 mm 860.0 W/m2 SCT
10:07 65.9 °F /  18.8 °C 51.6 °F /  10.9 °C 30.09 in /  1018.8 hPa SW 3.5 mph /  5.6 km/h 3.5 mph /  5.6 km/h 60 % 0.00 in /  0 mm 872.0 W/m2 SCT
10:12 66.8 °F /  19.3 °C 51.5 °F /  10.8 °C 30.09 in /  1018.8 hPa SSW 6.9 mph /  11.1 km/h 6.9 mph /  11.1 km/h 58 % 0.00 in /  0 mm 863.0 W/m2 SCT
10:17 66.7 °F /  19.3 °C 50.5 °F /  10.3 °C 30.09 in /  1018.8 hPa East 3.5 mph /  5.6 km/h 3.5 mph /  5.6 km/h 56 % 0.00 in /  0 mm 833.0 W/m2 SCT
10:22 66.8 °F /  19.3 °C 51.5 °F /  10.8 °C 30.09 in /  1018.8 hPa SSW 6.9 mph /  11.1 km/h 6.9 mph /  11.1 km/h 58 % 0.00 in /  0 mm 911.0 W/m2 SCT
10:27 67.3 °F /  19.6 °C 51.5 °F /  10.8 °C 30.09 in /  1018.8 hPa SW 9.2 mph /  14.8 km/h 9.2 mph /  14.8 km/h 57 % 0.00 in /  0 mm 949.0 W/m2 SCT
10:32 66.5 °F /  19.2 °C 49.8 °F /  9.9 °C 30.09 in /  1018.8 hPa WSW 3.5 mph /  5.6 km/h 3.5 mph /  5.6 km/h 55 % 0.00 in /  0 mm 875.0 W/m2 SCT
10:37 66.1 °F /  18.9 °C 49.9 °F /  9.9 °C 30.09 in /  1018.8 hPa SSW 3.0 mph /  4.8 km/h 3.0 mph /  4.8 km/h 56 % 0.00 in /  0 mm 886.0 W/m2 SCT
10:42 67.1 °F /  19.5 °C 51.4 °F /  10.8 °C 30.09 in /  1018.8 hPa WSW 3.5 mph /  5.6 km/h 3.5 mph /  5.6 km/h 57 % 0.00 in /  0 mm 926.0 W/m2 SCT
10:47 66.8 °F /  19.3 °C 51.1 °F /  10.6 °C 30.08 in /  1018.5 hPa West 3.5 mph /  5.6 km/h 3.5 mph /  5.6 km/h 57 % 0.00 in /  0 mm 979.0 W/m2 SCT
10:52 67.1 °F /  19.5 °C 50.9 °F /  10.5 °C 30.08 in /  1018.5 hPa South 6.9 mph /  11.1 km/h 6.9 mph /  11.1 km/h 56 % 0.00 in /  0 mm 221.0 W/m2 SCT
10:57 66.9 °F /  19.4 °C 51.2 °F /  10.7 °C 30.08 in /  1018.5 hPa South 6.9 mph /  11.1 km/h 6.9 mph /  11.1 km/h 57 % 0.00 in /  0 mm 932.0 W/m2 SCT
11:02 67.7 °F /  19.8 °C 50.5 °F /  10.3 °C 30.08 in /  1018.5 hPa WSW 4.6 mph /  7.4 km/h 4.6 mph /  7.4 km/h 54 % 0.00 in /  0 mm 895.0 W/m2 SCT
11:07 67.8 °F /  19.9 °C 50.5 °F /  10.3 °C 30.08 in /  1018.5 hPa South 3.5 mph /  5.6 km/h 3.5 mph /  5.6 km/h 54 % 0.00 in /  0 mm 960.0 W/m2 SCT
11:12 68.0 °F /  20 °C 50.7 °F /  10.4 °C 30.08 in /  1018.5 hPa SW 6.9 mph /  11.1 km/h 6.9 mph /  11.1 km/h 54 % 0.00 in /  0 mm 267.0 W/m2 SCT
11:17 68.8 °F /  20.4 °C 52.0 °F /  11.1 °C 30.08 in /  1018.5 hPa SSW 6.9 mph /  11.1 km/h 6.9 mph /  11.1 km/h 55 % 0.00 in /  0 mm 930.0 W/m2 SCT
11:22 69.4 °F /  20.8 °C 51.5 °F /  10.8 °C 30.08 in /  1018.5 hPa SSW 5.8 mph /  9.3 km/h 5.8 mph /  9.3 km/h 53 % 0.00 in /  0 mm 923.0 W/m2 SCT
11:27 68.4 °F /  20.2 °C 50.6 °F /  10.3 °C 30.08 in /  1018.5 hPa SSW 4.0 mph /  6.4 km/h 4.0 mph /  6.4 km/h 53 % 0.00 in /  0 mm 919.0 W/m2 SCT
11:32 68.6 °F /  20.3 °C 50.8 °F /  10.4 °C 30.08 in /  1018.5 hPa NW 3.5 mph /  5.6 km/h 3.5 mph /  5.6 km/h 53 % 0.00 in /  0 mm 940.0 W/m2 SCT
11:37 68.9 °F /  20.5 °C 51.6 °F /  10.9 °C 30.07 in /  1018.2 hPa East 3.5 mph /  5.6 km/h 3.5 mph /  5.6 km/h 54 % 0.00 in /  0 mm 947.0 W/m2 SCT
11:43 70.1 °F /  21.2 °C 52.2 °F /  11.2 °C 30.07 in /  1018.2 hPa ESE 2.3 mph /  3.7 km/h 2.3 mph /  3.7 km/h 53 % 0.00 in /  0 mm 949.0 W/m2 SCT
11:48 70.7 °F /  21.5 °C 52.7 °F /  11.5 °C 30.07 in /  1018.2 hPa SW 4.0 mph /  6.4 km/h 4.0 mph /  6.4 km/h 53 % 0.00 in /  0 mm 960.0 W/m2 SCT
11:53 71.6 °F /  22 °C 52.0 °F /  11.1 °C 30.07 in /  1018.2 hPa SW 6.9 mph /  11.1 km/h 6.9 mph /  11.1 km/h 50 % 0.00 in /  0 mm 969.0 W/m2 SCT
11:58 69.6 °F /  20.9 °C 50.1 °F /  10.1 °C 30.07 in /  1018.2 hPa NW 3.5 mph /  5.6 km/h 3.5 mph /  5.6 km/h 50 % 0.00 in /  0 mm 979.0 W/m2 SCT
12:03 70.0 °F /  21.1 °C 53.1 °F /  11.7 °C 30.07 in /  1018.2 hPa WSW 8.1 mph /  13 km/h 8.1 mph /  13 km/h 55 % 0.00 in /  0 mm 984.0 W/m2 FEW
12:08 71.3 °F /  21.8 °C 52.8 °F /  11.6 °C 30.07 in /  1018.2 hPa South 3.5 mph /  5.6 km/h 3.5 mph /  5.6 km/h 52 % 0.00 in /  0 mm 984.0 W/m2 FEW
12:13 70.8 °F /  21.6 °C 51.2 °F /  10.7 °C 30.07 in /  1018.2 hPa North 3.5 mph /  5.6 km/h 3.5 mph /  5.6 km/h 50 % 0.00 in /  0 mm 995.0 W/m2 FEW
12:18 71.9 °F /  22.2 °C 53.3 °F /  11.8 °C 30.07 in /  1018.2 hPa SSW 5.0 mph /  8 km/h 5.0 mph /  8 km/h 52 % 0.00 in /  0 mm 995.0 W/m2 FEW
12:23 71.9 °F /  22.2 °C 52.8 °F /  11.6 °C 30.06 in /  1017.8 hPa SE 2.3 mph /  3.7 km/h 2.3 mph /  3.7 km/h 51 % 0.00 in /  0 mm 995.0 W/m2 FEW
12:28 73.2 °F /  22.9 °C 53.4 °F /  11.9 °C 30.06 in /  1017.8 hPa South 5.8 mph /  9.3 km/h 5.8 mph /  9.3 km/h 50 % 0.00 in /  0 mm 1002.0 W/m2 FEW
12:33 72.3 °F /  22.4 °C 51.5 °F /  10.8 °C 30.06 in /  1017.8 hPa SSW 6.9 mph /  11.1 km/h 6.9 mph /  11.1 km/h 48 % 0.00 in /  0 mm 1005.0 W/m2 FEW
12:38 72.4 °F /  22.4 °C 52.7 °F /  11.5 °C 30.06 in /  1017.8 hPa SW 4.0 mph /  6.4 km/h 4.0 mph /  6.4 km/h 50 % 0.00 in /  0 mm 1013.0 W/m2 FEW
12:43 71.9 °F /  22.2 °C 51.7 °F /  10.9 °C 30.06 in /  1017.8 hPa West 3.5 mph /  5.6 km/h 3.5 mph /  5.6 km/h 49 % 0.00 in /  0 mm 1011.0 W/m2 FEW
12:48 71.1 °F /  21.7 °C 51.5 °F /  10.8 °C 30.06 in /  1017.8 hPa NE 3.5 mph /  5.6 km/h 3.5 mph /  5.6 km/h 50 % 0.00 in /  0 mm 1005.0 W/m2 FEW
12:53 71.6 °F /  22 °C 53.0 °F /  11.7 °C 30.06 in /  1017.8 hPa SW 5.8 mph /  9.3 km/h 5.8 mph /  9.3 km/h 52 % 0.00 in /  0 mm 1002.0 W/m2 FEW
12:58 73.6 °F /  23.1 °C 53.3 °F /  11.8 °C 30.06 in /  1017.8 hPa SSE 5.8 mph /  9.3 km/h 5.8 mph /  9.3 km/h 49 % 0.00 in /  0 mm 1016.0 W/m2 FEW
13:03 74.0 °F /  23.3 °C 52.5 °F /  11.4 °C 30.05 in /  1017.5 hPa SE 4.6 mph /  7.4 km/h 4.6 mph /  7.4 km/h 47 % 0.00 in /  0 mm 1023.0 W/m2 FEW
13:09 74.1 °F /  23.4 °C 52.6 °F /  11.4 °C 30.05 in /  1017.5 hPa ESE 4.0 mph /  6.4 km/h 4.0 mph /  6.4 km/h 47 % 0.00 in /  0 mm 1013.0 W/m2 FEW
Melbourne Forecast
About Melbourne | City of Melbourne official website